Meteorología y climatología de Navarra
Datos de la estación - Meteo Navarra

Estación de Doneztebe-Santesteban GN

Altitud 125 m.


Datos desde el 11/01/2019 hasta el 12/01/2019 en horario solar
Los datos son PROVISIONALES

Anterior Página 1 de 1 Siguiente Descargar: Formato para Excel 2000 o superior   Formato csv   Formato para OpenOffice Calc
Fecha Temperatura Humedad relativa Radiación global Insolación Precipitación Vel. viento 10 m Vel. viento 10 m Dir. viento 10 m
ºC % W/m² s l/m² m/s km/h º
11/01/2019 0:00 -2.8 97 0.0 0 0.0 0.5 1.7 115
11/01/2019 0:10 -2.8 98 0.0 0 0.0 0.5 1.9 128
11/01/2019 0:20 -2.7 98 0.0 0 0.0 0.3 1.0 133
11/01/2019 0:30 -2.5 98 0.0 0 0.0 0.3 1.2 144
11/01/2019 0:40 -2.5 98 0.0 0 0.0 0.1 0.3 145
11/01/2019 0:50 -2.3 98 0.0 0 0.0 0.8 2.7 127
11/01/2019 1:00 -2.2 98 0.0 0 0.0 0.6 2.1 129
11/01/2019 1:10 -2.0 98 0.0 0 0.0 0.0 0.1 149
11/01/2019 1:20 -1.9 98 0.0 0 0.0 0.6 2.2 138
11/01/2019 1:30 -1.8 98 0.0 0 0.0 0.3 0.9 246
11/01/2019 1:40 -1.6 98 0.0 0 0.0 0.3 1.2 245
11/01/2019 1:50 -1.4 98 0.0 0 0.0 0.2 0.7 224
11/01/2019 2:00 -1.2 98 0.0 0 0.0 0.3 1.2 143
11/01/2019 2:10 -1.2 97 0.0 0 0.0 0.2 0.9 176
11/01/2019 2:20 -1.2 97 0.0 0 0.0 0.4 1.4 132
11/01/2019 2:30 -1.4 96 0.0 0 0.0 0.2 0.5 287
11/01/2019 2:40 -1.5 96 0.0 0 0.0 0.3 1.1 125
11/01/2019 2:50 -1.6 96 0.0 0 0.0 0.2 0.7 180
11/01/2019 3:00 -1.8 96 0.0 0 0.0 0.2 0.5 181
11/01/2019 3:10 -1.6 96 0.0 0 0.0 0.2 0.5 189
11/01/2019 3:20 -1.7 95 0.0 0 0.0 0.5 1.9 137
11/01/2019 3:30 -1.8 95 0.0 0 0.0 0.5 1.7 148
11/01/2019 3:40 -1.8 94 0.0 0 0.0 0.4 1.5 164
11/01/2019 3:50 -2.2 95 0.0 0 0.0 0.4 1.3 352
11/01/2019 4:00 -2.2 95 0.0 0 0.0 0.2 0.5 102
11/01/2019 4:10 -2.4 95 0.0 0 0.0 0.1 0.5 143
11/01/2019 4:20 -2.6 96 0.0 0 0.0 0.1 0.5 122
11/01/2019 4:30 -2.6 96 0.0 0 0.0 0.2 0.6 127
11/01/2019 4:40 -2.7 96 0.0 0 0.0 0.1 0.5 303
11/01/2019 4:50 -2.9 97 0.0 0 0.0 0.1 0.3 235
11/01/2019 5:00 -3.0 97 0.0 0 0.0 0.0 0.1 324
11/01/2019 5:10 -3.1 97 0.0 0 0.0 0.2 0.8 169
11/01/2019 5:20 -3.2 97 0.0 0 0.0 0.1 0.2 158
11/01/2019 5:30 -3.2 97 0.0 0 0.0 0.1 0.4 240
11/01/2019 5:40 -3.1 98 0.0 0 0.0 0.0 0.0 0
11/01/2019 5:50 -3.0 98 0.0 0 0.0 0.4 1.3 156
11/01/2019 6:00 -3.1 98 0.0 0 0.0 0.5 1.9 118
11/01/2019 6:10 -2.8 98 0.0 0 0.0 0.3 0.9 153
11/01/2019 6:20 -2.8 98 0.0 0 0.0 0.6 2.0 136
11/01/2019 6:30 -2.7 98 0.0 0 0.0 0.4 1.4 116
11/01/2019 6:40 -2.6 98 0.0 0 0.0 0.3 1.1 144
11/01/2019 6:50 -2.8 97 0.0 0 0.0 0.6 2.1 130
11/01/2019 7:00 -3.0 98 0.0 0 0.0 0.5 1.7 128
11/01/2019 7:10 -2.9 98 0.0 0 0.0 0.0 0.1 137
11/01/2019 7:20 -2.9 98 0.0 0 0.0 0.1 0.3 226
11/01/2019 7:30 -3.0 98 0.0 0 0.0 0.0 0.0 0
11/01/2019 7:40 -3.1 98 0.0 0 0.0 0.1 0.3 306
11/01/2019 7:50 -3.1 98 0.0 0 0.0 0.0 0.1 216
11/01/2019 8:00 -3.2 98 4.1 0 0.0 0.2 0.6 186
11/01/2019 8:10 -3.0 98 16.7 0 0.0 0.5 1.8 131
11/01/2019 8:20 -2.5 99 20.4 0 0.0 0.8 2.7 134
11/01/2019 8:30 -2.1 98 22.6 0 0.0 0.9 3.3 127
11/01/2019 8:40 -1.9 98 26.3 0 0.0 0.5 1.9 107
11/01/2019 8:50 -1.7 98 35.4 0 0.0 0.5 1.7 108
11/01/2019 9:00 -1.5 98 47.6 0 0.0 1.3 4.6 116
11/01/2019 9:10 -1.3 97 57.6 0 0.0 1.0 3.6 122
11/01/2019 9:20 -1.1 95 65.0 0 0.0 0.4 1.3 113
11/01/2019 9:30 -0.8 94 71.9 0 0.0 0.3 1.0 134
11/01/2019 9:40 -0.5 93 85.8 0 0.0 0.2 0.8 162
11/01/2019 9:50 -0.3 92 97.1 0 0.0 0.2 0.8 91
11/01/2019 10:00 -0.1 92 115.3 0 0.0 0.1 0.3 99
11/01/2019 10:10 0.3 90 126.6 0 0.0 0.6 2.1 124
11/01/2019 10:20 0.7 89 142.5 0 0.0 0.4 1.4 104
11/01/2019 10:30 1.1 87 160.6 0 0.0 0.1 0.3 73
11/01/2019 10:40 1.4 86 181.8 0 0.0 0.2 0.8 10
11/01/2019 10:50 1.8 85 210.5 330 0.0 0.3 1.1 18
11/01/2019 11:00 2.5 81 224.9 600 0.0 2.3 8.3 115
11/01/2019 11:10 2.9 78 232.9 600 0.0 2.2 8.0 114
11/01/2019 11:20 3.2 77 250.8 600 0.0 2.5 9.1 122
11/01/2019 11:30 3.4 74 262.5 600 0.0 2.5 8.9 109
11/01/2019 11:40 3.7 72 281.3 600 0.0 2.7 9.5 110
11/01/2019 11:50 4.0 70 276.3 398 0.0 2.5 8.8 107
11/01/2019 12:00 4.3 69 353.6 508 0.0 2.1 7.7 111
11/01/2019 12:10 5.0 68 387.9 538 0.0 1.7 6.0 114
11/01/2019 12:20 5.6 63 448.2 594 0.0 1.2 4.4 132
11/01/2019 12:30 5.9 60 395.0 522 0.0 1.0 3.5 86
11/01/2019 12:40 6.2 58 325.1 436 0.0 1.1 4.1 72
11/01/2019 12:50 6.1 54 347.2 502 0.0 2.5 9.0 355
11/01/2019 13:00 6.4 52 397.3 592 0.0 2.5 9.0 356
11/01/2019 13:10 6.5 51 384.8 552 0.0 3.5 12.5 342
11/01/2019 13:20 6.5 50 267.5 376 0.0 3.2 11.4 336
11/01/2019 13:30 6.7 47 363.6 528 0.0 2.5 8.9 350
11/01/2019 13:40 6.9 44 288.1 348 0.0 2.4 8.7 338
11/01/2019 13:50 6.9 44 245.1 402 0.0 2.3 8.4 333
11/01/2019 14:00 6.9 42 324.4 468 0.0 2.5 9.1 337
11/01/2019 14:10 7.2 37 347.4 600 0.0 2.1 7.4 7
11/01/2019 14:20 7.4 36 342.5 600 0.0 1.9 6.9 0
11/01/2019 14:30 7.2 37 326.0 600 0.0 3.5 12.7 332
11/01/2019 14:40 7.1 38 291.2 570 0.0 3.2 11.4 337
11/01/2019 14:50 6.9 38 226.2 442 0.0 3.0 10.8 324
11/01/2019 15:00 6.6 38 219.0 472 0.0 2.8 10.2 331
11/01/2019 15:10 6.4 40 126.1 148 0.0 2.2 7.7 332
11/01/2019 15:20 6.6 40 216.6 600 0.0 2.3 8.2 337
11/01/2019 15:30 6.6 38 178.1 572 0.0 2.4 8.5 325
11/01/2019 15:40 6.5 38 158.1 600 0.0 2.1 7.6 346
11/01/2019 15:50 6.1 38 131.6 600 0.0 2.5 9.0 344
11/01/2019 16:00 5.9 38 39.2 62 0.0 2.4 8.5 353
11/01/2019 16:10 5.7 40 24.6 0 0.0 2.1 7.4 345
11/01/2019 16:20 5.6 41 21.0 0 0.0 2.7 9.6 346
11/01/2019 16:30 5.3 43 11.7 0 0.0 2.2 8.0 344
11/01/2019 16:40 4.9 46 0.0 0 0.0 1.7 6.3 349
11/01/2019 16:50 4.6 47 0.0 0 0.0 1.8 6.6 356
11/01/2019 17:00 3.7 54 0.0 0 0.0 1.3 4.5 347
11/01/2019 17:10 2.7 61 0.0 0 0.0 1.1 4.1 304
11/01/2019 17:20 2.3 64 0.0 0 0.0 0.6 2.1 241
11/01/2019 17:30 2.1 64 0.0 0 0.0 0.5 1.9 246
11/01/2019 17:40 1.4 69 0.0 0 0.1 0.1 0.4 258
11/01/2019 17:50 1.2 74 0.0 0 0.0 0.4 1.5 127
11/01/2019 18:00 1.3 74 0.0 0 0.1 0.2 0.6 135
11/01/2019 18:10 1.2 76 0.0 0 0.0 0.2 0.8 128
11/01/2019 18:20 1.3 76 0.0 0 0.0 0.4 1.5 130
11/01/2019 18:30 1.4 77 0.0 0 0.0 0.7 2.6 125
11/01/2019 18:40 1.3 78 0.0 0 0.1 0.4 1.4 134
11/01/2019 18:50 1.4 78 0.0 0 0.0 0.8 2.8 126
11/01/2019 19:00 1.6 77 0.0 0 0.0 0.3 1.2 145
11/01/2019 19:10 1.9 74 0.0 0 0.0 0.4 1.4 146
11/01/2019 19:20 1.9 76 0.0 0 0.0 0.2 0.5 126
11/01/2019 19:30 2.0 76 0.0 0 0.0 1.3 4.5 133
11/01/2019 19:40 2.2 74 0.0 0 0.0 0.6 2.0 149
11/01/2019 19:50 2.2 76 0.0 0 0.0 1.0 3.5 115
11/01/2019 20:00 2.1 76 0.0 0 0.0 0.3 1.0 163
11/01/2019 20:10 2.1 76 0.0 0 0.0 0.5 1.6 159
11/01/2019 20:20 2.1 78 0.0 0 0.0 0.3 1.2 104
11/01/2019 20:30 1.9 79 0.0 0 0.0 0.4 1.3 177
11/01/2019 20:40 2.0 78 0.0 0 0.0 0.4 1.3 153
11/01/2019 20:50 2.1 78 0.0 0 0.0 1.2 4.2 132
11/01/2019 21:00 2.2 77 0.0 0 0.0 1.0 3.5 126
11/01/2019 21:10 2.2 77 0.0 0 0.0 0.7 2.6 121
11/01/2019 21:20 2.2 77 0.0 0 0.0 1.3 4.6 118
11/01/2019 21:30 2.2 77 0.0 0 0.0 1.0 3.6 149
11/01/2019 21:40 2.4 75 0.0 0 0.0 1.3 4.7 130
11/01/2019 21:50 2.3 75 0.0 0 0.0 1.2 4.4 138
11/01/2019 22:00 2.2 76 0.0 0 0.0 1.0 3.6 133
11/01/2019 22:10 1.9 79 0.0 0 0.0 0.3 1.2 119
11/01/2019 22:20 1.7 80 0.0 0 0.0 0.1 0.5 328
11/01/2019 22:30 1.4 83 0.0 0 0.0 0.0 0.1 176
11/01/2019 22:40 1.2 83 0.0 0 0.0 0.1 0.4 178
11/01/2019 22:50 0.8 85 0.0 0 0.0 0.5 1.9 155
11/01/2019 23:00 0.8 87 0.0 0 0.0 1.3 4.6 118
11/01/2019 23:10 1.2 85 0.0 0 0.0 1.4 4.9 133
11/01/2019 23:20 1.5 82 0.0 0 0.0 0.8 2.9 102
11/01/2019 23:30 1.3 83 0.0 0 0.1 1.1 4.0 99
11/01/2019 23:40 1.3 83 0.0 0 0.0 0.8 2.7 120
11/01/2019 23:50 1.3 83 0.0 0 0.1 1.4 5.1 121
Anterior Página 1 de 1 Siguiente

NOTA: Tipo de datos según el color:
   - Valores diarios o 10 minutos correctos
   - Valores diarios calculados a partir de un número de datos 10 minutos menor que 144 y mayor que 120, o de un número de datos semihorarios menor que 48 y mayor que 40 (caso de las estaciones de Riegos de Navarra y del MARM)
   - Valores diez minutos estimados


Contacto        Enlaces        Aviso legal